Wetterdaten: Woche 15.06.09 - 21.06.09 (KW25)
Datum Zeit Temp. Innen Temp. Aussen UV X Diff Temp. Feuchte Inne Feuchte Auss Sonnenschein Luftdruck Regen ab 0,1 Wind Sonnenschein Windben
15.06.2009 00:00 21,5 C 18,4 C 0,0 UV-I 0,0 C 63 % 82 % 0 % 1016,9 hPa 0,0 l/m 0,0 km/h (0 Bft) 0,00 h 0,1 km/h (0 Bft)
15.06.2009 01:00 21,4 C 18,1 C 0,0 UV-I 0,0 C 64 % 85 % 0 % 1017,0 hPa 0,0 l/m 0,0 km/h (0 Bft) 0,00 h 0,4 km/h (0 Bft)
15.06.2009 02:00 21,2 C 17,7 C 0,0 UV-I 0,0 C 65 % 85 % 0 % 1017,2 hPa 0,0 l/m 0,9 km/h (0 Bft) 0,00 h 1,7 km/h (1 Bft)
15.06.2009 03:00 21,1 C 16,5 C 0,0 UV-I 0,0 C 64 % 84 % 0 % 1016,9 hPa 0,0 l/m 0,0 km/h (0 Bft) 0,00 h 0,0 km/h (0 Bft)
15.06.2009 04:00 20,8 C 14,9 C 0,0 UV-I 0,0 C 64 % 85 % 0 % 1016,7 hPa 0,0 l/m 0,0 km/h (0 Bft) 0,00 h 0,0 km/h (0 Bft)
15.06.2009 05:00 20,5 C 13,8 C 0,0 UV-I 0,0 C 64 % 89 % 0 % 1016,9 hPa 0,0 l/m 0,0 km/h (0 Bft) 0,00 h 0,0 km/h (0 Bft)
15.06.2009 06:00 20,3 C 13,5 C 0,4 UV-I 0,0 C 64 % 91 % 0 % 1016,8 hPa 0,0 l/m 0,0 km/h (0 Bft) 0,00 h 0,0 km/h (0 Bft)
15.06.2009 07:00 20,3 C 14,0 C 1,0 UV-I 0,2 C 64 % 92 % 5 % 1016,9 hPa 0,0 l/m 0,4 km/h (0 Bft) 0,00 h 0,9 km/h (0 Bft)
15.06.2009 08:00 20,4 C 14,4 C 0,8 UV-I 0,5 C 64 % 90 % 15 % 1017,1 hPa 0,0 l/m 1,5 km/h (1 Bft) 0,00 h 2,2 km/h (1 Bft)
15.06.2009 09:00 20,5 C 14,5 C 0,8 UV-I 0,5 C 63 % 89 % 15 % 1017,2 hPa 0,0 l/m 0,8 km/h (0 Bft) 0,00 h 0,7 km/h (0 Bft)
15.06.2009 10:00 20,5 C 14,7 C 0,6 UV-I 0,1 C 63 % 89 % 3 % 1017,0 hPa 0,0 l/m 0,1 km/h (0 Bft) 0,00 h 0,3 km/h (0 Bft)
15.06.2009 11:00 20,5 C 15,1 C 0,9 UV-I 0,2 C 63 % 88 % 7 % 1016,3 hPa 0,0 l/m 0,1 km/h (0 Bft) 0,00 h 0,0 km/h (0 Bft)
15.06.2009 12:00 20,6 C 15,8 C 2,2 UV-I 1,1 C 63 % 87 % 32 % 1016,1 hPa 0,0 l/m 0,9 km/h (0 Bft) 0,00 h 1,8 km/h (1 Bft)
15.06.2009 13:00 21,0 C 17,4 C 3,3 UV-I 2,2 C 62 % 81 % 63 % 1016,1 hPa 0,0 l/m 2,4 km/h (1 Bft) 0,03 h 3,8 km/h (1 Bft)
15.06.2009 14:00 21,2 C 17,8 C 1,5 UV-I 0,4 C 61 % 77 % 11 % 1016,1 hPa 0,0 l/m 2,0 km/h (1 Bft) 0,00 h 3,2 km/h (1 Bft)
15.06.2009 15:00 21,2 C 17,4 C 1,7 UV-I 0,5 C 60 % 77 % 15 % 1015,9 hPa 0,4 l/m 3,3 km/h (1 Bft) 0,00 h 4,9 km/h (1 Bft)
15.06.2009 16:00 21,2 C 16,2 C 1,6 UV-I 0,0 C 60 % 80 % 0 % 1015,7 hPa 0,2 l/m 0,1 km/h (0 Bft) 0,00 h 0,0 km/h (0 Bft)
15.06.2009 17:00 21,1 C 15,8 C 1,0 UV-I 0,0 C 60 % 82 % 0 % 1014,7 hPa 0,6 l/m 0,1 km/h (0 Bft) 0,00 h 0,3 km/h (0 Bft)
15.06.2009 18:00 20,9 C 15,6 C 0,9 UV-I 0,0 C 62 % 84 % 0 % 1014,7 hPa 0,0 l/m 0,0 km/h (0 Bft) 0,00 h 0,0 km/h (0 Bft)
15.06.2009 19:00 20,8 C 15,6 C 0,7 UV-I 0,0 C 62 % 84 % 0 % 1014,3 hPa 0,0 l/m 0,1 km/h (0 Bft) 0,00 h 0,3 km/h (0 Bft)
15.06.2009 20:00 20,7 C 15,7 C 0,4 UV-I 0,0 C 62 % 85 % 0 % 1015,1 hPa 0,0 l/m 0,6 km/h (0 Bft) 0,00 h 0,7 km/h (0 Bft)
15.06.2009 21:00 20,6 C 15,4 C 0,1 UV-I 0,0 C 64 % 87 % 0 % 1014,9 hPa 0,0 l/m 0,0 km/h (0 Bft) 0,00 h 0,0 km/h (0 Bft)
15.06.2009 22:00 20,4 C 14,5 C 0,0 UV-I 0,0 C 64 % 89 % 0 % 1015,3 hPa 0,0 l/m 0,0 km/h (0 Bft) 0,00 h 0,0 km/h (0 Bft)
15.06.2009 23:00 20,0 C 13,6 C 0,0 UV-I 0,0 C 64 % 90 % 0 % 1015,7 hPa 0,0 l/m 0,0 km/h (0 Bft) 0,00 h 0,0 km/h (0 Bft)
16.06.2009 00:00 19,7 C 12,8 C 0,0 UV-I 0,0 C 63 % 90 % 0 % 1016,0 hPa 0,0 l/m 0,0 km/h (0 Bft) 0,00 h 0,3 km/h (0 Bft)
16.06.2009 01:00 19,3 C 12,3 C 0,0 UV-I 0,0 C 62 % 90 % 0 % 1015,8 hPa 0,0 l/m 0,0 km/h (0 Bft) 0,00 h 0,1 km/h (0 Bft)
16.06.2009 02:00 19,1 C 12,2 C 0,0 UV-I 0,0 C 62 % 90 % 0 % 1015,9 hPa 0,0 l/m 0,0 km/h (0 Bft) 0,00 h 0,1 km/h (0 Bft)
16.06.2009 03:00 19,1 C 12,2 C 0,0 UV-I 0,0 C 63 % 91 % 0 % 1015,9 hPa 0,0 l/m 0,1 km/h (0 Bft) 0,00 h 0,3 km/h (0 Bft)
16.06.2009 04:00 19,0 C 12,5 C 0,0 UV-I 0,0 C 63 % 91 % 0 % 1016,1 hPa 0,4 l/m 0,2 km/h (0 Bft) 0,00 h 0,4 km/h (0 Bft)
16.06.2009 05:00 19,0 C 12,7 C 0,0 UV-I 0,0 C 64 % 92 % 0 % 1016,6 hPa 0,1 l/m 0,2 km/h (0 Bft) 0,00 h 0,4 km/h (0 Bft)
16.06.2009 06:00 19,0 C 12,8 C 0,2 UV-I 0,0 C 65 % 93 % 0 % 1017,0 hPa 0,0 l/m 0,0 km/h (0 Bft) 0,00 h 0,0 km/h (0 Bft)
16.06.2009 07:00 19,0 C 12,6 C 1,0 UV-I 0,0 C 65 % 93 % 0 % 1017,3 hPa 0,0 l/m 0,5 km/h (0 Bft) 0,00 h 1,9 km/h (1 Bft)
16.06.2009 08:00 19,0 C 13,5 C 1,3 UV-I 0,1 C 63 % 89 % 4 % 1017,9 hPa 0,0 l/m 3,0 km/h (1 Bft) 0,00 h 5,1 km/h (1 Bft)
16.06.2009 09:00 19,3 C 14,5 C 1,8 UV-I 0,9 C 63 % 85 % 25 % 1018,5 hPa 0,0 l/m 3,1 km/h (1 Bft) 0,00 h 4,9 km/h (1 Bft)
16.06.2009 10:00 20,0 C 15,3 C 2,0 UV-I 0,9 C 60 % 81 % 25 % 1019,3 hPa 0,0 l/m 3,3 km/h (1 Bft) 0,00 h 6,0 km/h (2 Bft)
16.06.2009 11:00 20,1 C 16,9 C 4,9 UV-I 2,8 C 60 % 76 % 81 % 1019,8 hPa 0,0 l/m 3,3 km/h (1 Bft) 0,57 h 5,2 km/h (1 Bft)
16.06.2009 12:00 20,3 C 18,8 C 4,5 UV-I 2,5 C 59 % 68 % 66 % 1020,1 hPa 0,0 l/m 4,5 km/h (1 Bft) 0,47 h 7,0 km/h (2 Bft)
16.06.2009 13:00 20,5 C 18,1 C 2,6 UV-I 0,0 C 59 % 70 % 1 % 1020,7 hPa 0,1 l/m 3,8 km/h (1 Bft) 0,00 h 5,9 km/h (2 Bft)
16.06.2009 14:00 20,4 C 16,9 C 4,5 UV-I 1,2 C 62 % 80 % 35 % 1021,5 hPa 0,0 l/m 1,2 km/h (1 Bft) 0,10 h 1,8 km/h (1 Bft)
16.06.2009 15:00 20,6 C 16,6 C 1,4 UV-I 0,1 C 62 % 80 % 2 % 1022,1 hPa 0,0 l/m 1,6 km/h (1 Bft) 0,00 h 2,4 km/h (1 Bft)
16.06.2009 16:00 20,5 C 16,9 C 3,7 UV-I 2,2 C 62 % 78 % 56 % 1022,4 hPa 0,0 l/m 1,7 km/h (1 Bft) 0,47 h 3,1 km/h (1 Bft)
16.06.2009 17:00 21,2 C 18,9 C 3,4 UV-I 3,2 C 60 % 69 % 79 % 1022,6 hPa 0,0 l/m 3,0 km/h (1 Bft) 0,57 h 4,3 km/h (1 Bft)
16.06.2009 18:00 21,9 C 19,4 C 2,4 UV-I 2,1 C 57 % 64 % 60 % 1023,2 hPa 0,0 l/m 3,2 km/h (1 Bft) 0,20 h 5,1 km/h (1 Bft)
16.06.2009 19:00 21,8 C 18,8 C 1,4 UV-I 0,1 C 56 % 65 % 2 % 1023,8 hPa 0,0 l/m 1,9 km/h (1 Bft) 0,00 h 2,5 km/h (1 Bft)
16.06.2009 20:00 21,5 C 17,9 C 0,6 UV-I 0,0 C 56 % 67 % 0 % 1024,4 hPa 0,0 l/m 0,6 km/h (0 Bft) 0,00 h 0,9 km/h (0 Bft)
16.06.2009 21:00 21,3 C 16,9 C 0,1 UV-I 0,0 C 59 % 72 % 0 % 1024,6 hPa 0,0 l/m 0,0 km/h (0 Bft) 0,00 h 0,0 km/h (0 Bft)
16.06.2009 22:00 20,8 C 15,2 C 0,0 UV-I 0,0 C 60 % 79 % 0 % 1025,3 hPa 0,0 l/m 0,0 km/h (0 Bft) 0,00 h 0,0 km/h (0 Bft)
16.06.2009 23:00 20,3 C 13,6 C 0,0 UV-I 0,0 C 60 % 83 % 0 % 1025,6 hPa 0,0 l/m 0,0 km/h (0 Bft) 0,00 h 0,0 km/h (0 Bft)
17.06.2009 00:00 19,9 C 12,3 C 0,0 UV-I 0,0 C 61 % 86 % 0 % 1025,4 hPa 0,0 l/m 0,0 km/h (0 Bft) 0,00 h 0,0 km/h (0 Bft)
17.06.2009 01:00 19,6 C 11,4 C 0,0 UV-I 0,0 C 61 % 88 % 0 % 1025,2 hPa 0,0 l/m 0,0 km/h (0 Bft) 0,00 h 0,0 km/h (0 Bft)
17.06.2009 02:00 19,3 C 10,7 C 0,0 UV-I 0,0 C 61 % 90 % 0 % 1025,0 hPa 0,0 l/m 0,0 km/h (0 Bft) 0,00 h 0,0 km/h (0 Bft)
17.06.2009 03:00 19,1 C 10,2 C 0,0 UV-I 0,0 C 61 % 91 % 0 % 1024,5 hPa 0,0 l/m 0,0 km/h (0 Bft) 0,00 h 0,0 km/h (0 Bft)
17.06.2009 04:00 18,9 C 9,6 C 0,0 UV-I 0,0 C 61 % 91 % 0 % 1024,2 hPa 0,0 l/m 0,0 km/h (0 Bft) 0,00 h 0,0 km/h (0 Bft)
17.06.2009 05:00 18,8 C 9,1 C 0,0 UV-I 0,0 C 59 % 92 % 0 % 1024,1 hPa 0,0 l/m 0,0 km/h (0 Bft) 0,00 h 0,0 km/h (0 Bft)
17.06.2009 06:00 18,6 C 9,3 C 0,4 UV-I 0,0 C 60 % 93 % 0 % 1023,8 hPa 0,0 l/m 0,1 km/h (0 Bft) 0,00 h 0,2 km/h (0 Bft)
17.06.2009 07:00 18,5 C 10,2 C 1,0 UV-I 0,3 C 61 % 95 % 8 % 1023,7 hPa 0,0 l/m 0,0 km/h (0 Bft) 0,00 h 0,5 km/h (0 Bft)
17.06.2009 08:00 18,7 C 11,8 C 1,6 UV-I 0,7 C 63 % 95 % 20 % 1023,9 hPa 0,0 l/m 0,2 km/h (0 Bft) 0,00 h 0,9 km/h (0 Bft)
17.06.2009 09:00 19,0 C 13,9 C 2,1 UV-I 2,0 C 64 % 93 % 50 % 1023,8 hPa 0,0 l/m 1,2 km/h (1 Bft) 0,20 h 2,4 km/h (1 Bft)
17.06.2009 10:00 19,3 C 17,0 C 3,0 UV-I 5,8 C 64 % 83 % 100 % 1023,3 hPa 0,0 l/m 2,1 km/h (1 Bft) 0,93 h 4,5 km/h (1 Bft)
17.06.2009 11:00 19,6 C 20,1 C 9,7 UV-I 3,8 C 63 % 69 % 98 % 1022,7 hPa 0,0 l/m 4,6 km/h (1 Bft) 0,93 h 7,4 km/h (2 Bft)
17.06.2009 12:00 20,2 C 22,7 C 7,0 UV-I 3,1 C 61 % 57 % 85 % 1022,2 hPa 0,0 l/m 3,1 km/h (1 Bft) 0,63 h 3,7 km/h (1 Bft)
17.06.2009 13:00 21,0 C 24,0 C 6,2 UV-I 2,5 C 58 % 51 % 70 % 1022,0 hPa 0,0 l/m 2,0 km/h (1 Bft) 0,07 h 4,0 km/h (1 Bft)
17.06.2009 14:00 21,7 C 25,2 C 6,6 UV-I 2,7 C 56 % 47 % 78 % 1021,4 hPa 0,0 l/m 2,6 km/h (1 Bft) 0,40 h 4,3 km/h (1 Bft)
17.06.2009 15:00 22,7 C 26,4 C 5,3 UV-I 1,4 C 53 % 45 % 41 % 1020,8 hPa 0,0 l/m 2,6 km/h (1 Bft) 0,00 h 4,7 km/h (1 Bft)
17.06.2009 16:00 23,7 C 26,9 C 5,6 UV-I 2,2 C 52 % 45 % 63 % 1020,0 hPa 0,0 l/m 2,5 km/h (1 Bft) 0,30 h 4,2 km/h (1 Bft)
17.06.2009 17:00 24,1 C 26,4 C 2,9 UV-I 0,4 C 51 % 44 % 10 % 1019,1 hPa 0,0 l/m 1,8 km/h (1 Bft) 0,00 h 3,3 km/h (1 Bft)
17.06.2009 18:00 23,7 C 25,1 C 1,9 UV-I 0,1 C 51 % 47 % 3 % 1017,8 hPa 0,0 l/m 1,5 km/h (1 Bft) 0,00 h 2,2 km/h (1 Bft)
17.06.2009 19:00 23,3 C 24,3 C 1,4 UV-I 0,0 C 53 % 51 % 0 % 1017,3 hPa 0,0 l/m 2,3 km/h (1 Bft) 0,00 h 3,9 km/h (1 Bft)
17.06.2009 20:00 23,2 C 23,4 C 0,5 UV-I 0,0 C 53 % 54 % 0 % 1016,7 hPa 0,0 l/m 0,1 km/h (0 Bft) 0,00 h 0,4 km/h (0 Bft)
17.06.2009 21:00 22,9 C 22,3 C 0,1 UV-I 0,0 C 54 % 53 % 0 % 1016,1 hPa 0,0 l/m 1,5 km/h (1 Bft) 0,00 h 3,3 km/h (1 Bft)
17.06.2009 22:00 22,7 C 21,2 C 0,0 UV-I 0,0 C 54 % 56 % 0 % 1016,0 hPa 0,0 l/m 0,8 km/h (0 Bft) 0,00 h 0,9 km/h (0 Bft)
17.06.2009 23:00 22,5 C 20,3 C 0,0 UV-I 0,0 C 54 % 58 % 0 % 1016,1 hPa 0,0 l/m 0,6 km/h (0 Bft) 0,00 h 1,0 km/h (0 Bft)
18.06.2009 00:00 22,2 C 19,6 C 0,0 UV-I 0,0 C 55 % 62 % 0 % 1015,9 hPa 0,0 l/m 0,3 km/h (0 Bft) 0,00 h 0,6 km/h (0 Bft)
18.06.2009 01:00 22,0 C 18,9 C 0,0 UV-I 0,0 C 56 % 65 % 0 % 1015,5 hPa 0,0 l/m 0,6 km/h (0 Bft) 0,00 h 1,4 km/h (1 Bft)
18.06.2009 02:00 21,8 C 18,5 C 0,0 UV-I 0,0 C 56 % 67 % 0 % 1015,5 hPa 0,0 l/m 0,4 km/h (0 Bft) 0,00 h 0,7 km/h (0 Bft)
18.06.2009 03:00 21,6 C 18,3 C 0,0 UV-I 0,0 C 57 % 69 % 0 % 1015,3 hPa 0,0 l/m 0,5 km/h (0 Bft) 0,00 h 1,3 km/h (1 Bft)
18.06.2009 04:00 21,5 C 17,9 C 0,0 UV-I 0,0 C 59 % 75 % 0 % 1015,4 hPa 0,0 l/m 1,0 km/h (0 Bft) 0,00 h 2,1 km/h (1 Bft)
18.06.2009 05:00 21,4 C 17,2 C 0,0 UV-I 0,0 C 61 % 81 % 0 % 1015,8 hPa 0,0 l/m 0,3 km/h (0 Bft) 0,00 h 0,5 km/h (0 Bft)
18.06.2009 06:00 21,2 C 16,9 C 0,1 UV-I 0,0 C 62 % 82 % 0 % 1015,8 hPa 0,0 l/m 0,8 km/h (0 Bft) 0,00 h 2,5 km/h (1 Bft)
18.06.2009 07:00 21,2 C 17,2 C 0,3 UV-I 0,0 C 61 % 79 % 1 % 1016,4 hPa 0,0 l/m 2,6 km/h (1 Bft) 0,00 h 4,8 km/h (1 Bft)
18.06.2009 08:00 21,2 C 17,2 C 1,0 UV-I 0,3 C 61 % 79 % 9 % 1017,2 hPa 0,0 l/m 1,6 km/h (1 Bft) 0,00 h 2,8 km/h (1 Bft)
18.06.2009 09:00 21,2 C 17,8 C 1,5 UV-I 0,6 C 62 % 79 % 17 % 1017,4 hPa 0,0 l/m 2,3 km/h (1 Bft) 0,00 h 4,4 km/h (1 Bft)
18.06.2009 10:00 21,3 C 18,4 C 2,7 UV-I 1,5 C 63 % 78 % 42 % 1017,9 hPa 0,0 l/m 2,9 km/h (1 Bft) 0,00 h 5,5 km/h (1 Bft)
18.06.2009 11:00 21,6 C 19,8 C 6,5 UV-I 3,3 C 63 % 74 % 87 % 1017,9 hPa 0,0 l/m 4,2 km/h (1 Bft) 0,70 h 6,1 km/h (2 Bft)
18.06.2009 12:00 21,8 C 22,0 C 6,6 UV-I 3,4 C 61 % 61 % 90 % 1017,8 hPa 0,0 l/m 4,7 km/h (1 Bft) 0,70 h 7,3 km/h (2 Bft)
18.06.2009 13:00 22,1 C 23,7 C 6,8 UV-I 3,1 C 58 % 50 % 86 % 1017,5 hPa 0,0 l/m 5,6 km/h (1 Bft) 0,60 h 7,7 km/h (2 Bft)
18.06.2009 14:00 22,6 C 24,5 C 5,8 UV-I 2,0 C 56 % 47 % 57 % 1017,5 hPa 0,0 l/m 4,3 km/h (1 Bft) 0,00 h 6,9 km/h (2 Bft)
18.06.2009 15:00 23,3 C 24,8 C 4,6 UV-I 1,6 C 54 % 45 % 46 % 1017,5 hPa 0,0 l/m 3,7 km/h (1 Bft) 0,23 h 5,6 km/h (1 Bft)
18.06.2009 16:00 23,7 C 24,7 C 4,9 UV-I 2,3 C 52 % 45 % 64 % 1017,2 hPa 0,0 l/m 4,1 km/h (1 Bft) 0,33 h 7,0 km/h (2 Bft)
18.06.2009 17:00 24,2 C 25,3 C 3,4 UV-I 2,4 C 51 % 43 % 69 % 1016,8 hPa 0,0 l/m 4,3 km/h (1 Bft) 0,40 h 5,7 km/h (1 Bft)
18.06.2009 18:00 24,5 C 24,5 C 2,5 UV-I 2,0 C 50 % 43 % 56 % 1016,8 hPa 0,0 l/m 3,2 km/h (1 Bft) 0,20 h 4,9 km/h (1 Bft)
18.06.2009 19:00 24,1 C 23,2 C 1,3 UV-I 0,0 C 49 % 46 % 1 % 1016,7 hPa 0,0 l/m 2,6 km/h (1 Bft) 0,00 h 3,9 km/h (1 Bft)
18.06.2009 20:00 23,7 C 21,3 C 0,4 UV-I 0,0 C 50 % 53 % 0 % 1016,6 hPa 0,0 l/m 1,5 km/h (1 Bft) 0,00 h 2,3 km/h (1 Bft)
18.06.2009 21:00 23,1 C 19,7 C 0,0 UV-I 0,0 C 50 % 57 % 0 % 1016,3 hPa 0,0 l/m 0,5 km/h (0 Bft) 0,00 h 0,6 km/h (0 Bft)
18.06.2009 22:00 22,7 C 18,7 C 0,0 UV-I 0,0 C 52 % 60 % 0 % 1016,6 hPa 0,0 l/m 0,4 km/h (0 Bft) 0,00 h 0,8 km/h (0 Bft)
18.06.2009 23:00 22,3 C 17,7 C 0,0 UV-I 0,0 C 52 % 61 % 0 % 1016,5 hPa 0,0 l/m 0,3 km/h (0 Bft) 0,00 h 0,4 km/h (0 Bft)
19.06.2009 00:00 22,0 C 16,5 C 0,0 UV-I 0,0 C 52 % 65 % 0 % 1016,3 hPa 0,0 l/m 0,0 km/h (0 Bft) 0,00 h 0,0 km/h (0 Bft)
19.06.2009 01:00 21,7 C 15,9 C 0,0 UV-I 0,0 C 53 % 69 % 0 % 1016,5 hPa 0,0 l/m 0,0 km/h (0 Bft) 0,00 h 0,0 km/h (0 Bft)
19.06.2009 02:00 21,6 C 15,7 C 0,0 UV-I 0,0 C 53 % 70 % 0 % 1016,6 hPa 0,0 l/m 0,0 km/h (0 Bft) 0,00 h 0,0 km/h (0 Bft)
19.06.2009 03:00 21,4 C 15,4 C 0,0 UV-I 0,0 C 54 % 72 % 0 % 1016,9 hPa 0,0 l/m 0,0 km/h (0 Bft) 0,00 h 0,0 km/h (0 Bft)
19.06.2009 04:00 21,2 C 15,0 C 0,0 UV-I 0,0 C 54 % 73 % 0 % 1016,6 hPa 0,0 l/m 0,2 km/h (0 Bft) 0,00 h 0,8 km/h (0 Bft)
19.06.2009 05:00 21,0 C 14,8 C 0,0 UV-I 0,0 C 54 % 75 % 0 % 1015,9 hPa 0,0 l/m 1,3 km/h (1 Bft) 0,00 h 3,2 km/h (1 Bft)
19.06.2009 06:00 20,8 C 14,4 C 0,1 UV-I 0,0 C 54 % 75 % 0 % 1016,1 hPa 0,0 l/m 1,6 km/h (1 Bft) 0,00 h 3,2 km/h (1 Bft)
19.06.2009 07:00 20,7 C 14,2 C 0,6 UV-I 0,0 C 54 % 76 % 0 % 1016,1 hPa 0,0 l/m 1,4 km/h (1 Bft) 0,00 h 3,0 km/h (1 Bft)
19.06.2009 08:00 20,6 C 14,6 C 1,4 UV-I 0,5 C 54 % 75 % 15 % 1016,8 hPa 0,0 l/m 3,4 km/h (1 Bft) 0,00 h 6,9 km/h (2 Bft)
19.06.2009 09:00 20,8 C 15,5 C 2,1 UV-I 1,2 C 55 % 74 % 33 % 1017,2 hPa 0,0 l/m 4,1 km/h (1 Bft) 0,00 h 5,7 km/h (1 Bft)
19.06.2009 10:00 21,0 C 16,9 C 3,1 UV-I 2,6 C 55 % 68 % 74 % 1017,8 hPa 0,0 l/m 5,3 km/h (1 Bft) 0,33 h 8,6 km/h (2 Bft)
19.06.2009 11:00 21,1 C 18,4 C 6,3 UV-I 3,2 C 53 % 59 % 89 % 1017,7 hPa 0,0 l/m 5,7 km/h (1 Bft) 0,83 h 9,1 km/h (2 Bft)
19.06.2009 12:00 21,2 C 19,1 C 5,6 UV-I 2,4 C 51 % 55 % 68 % 1018,0 hPa 0,0 l/m 6,5 km/h (2 Bft) 0,47 h 10,3 km/h (2 Bft)
19.06.2009 13:00 21,6 C 20,7 C 5,3 UV-I 2,7 C 50 % 49 % 72 % 1018,0 hPa 0,0 l/m 6,0 km/h (2 Bft) 0,43 h 8,0 km/h (2 Bft)
19.06.2009 14:00 22,0 C 21,0 C 4,6 UV-I 1,8 C 48 % 46 % 52 % 1018,4 hPa 0,0 l/m 6,1 km/h (2 Bft) 0,30 h 8,2 km/h (2 Bft)
19.06.2009 15:00 22,6 C 20,8 C 4,3 UV-I 2,1 C 47 % 45 % 56 % 1018,8 hPa 0,0 l/m 6,7 km/h (2 Bft) 0,30 h 9,5 km/h (2 Bft)
19.06.2009 16:00 23,7 C 20,8 C 4,0 UV-I 1,5 C 43 % 42 % 42 % 1019,5 hPa 0,0 l/m 7,5 km/h (2 Bft) 0,17 h 13,5 km/h (3 Bft)
19.06.2009 17:00 24,5 C 21,2 C 4,2 UV-I 3,5 C 41 % 40 % 96 % 1019,7 hPa 0,0 l/m 7,7 km/h (2 Bft) 0,97 h 13,3 km/h (3 Bft)
19.06.2009 18:00 25,2 C 20,2 C 2,2 UV-I 2,2 C 38 % 43 % 62 % 1020,3 hPa 0,0 l/m 6,7 km/h (2 Bft) 0,23 h 11,4 km/h (2 Bft)
19.06.2009 19:00 24,8 C 19,0 C 1,4 UV-I 0,0 C 38 % 42 % 0 % 1020,7 hPa 0,0 l/m 5,5 km/h (1 Bft) 0,00 h 8,4 km/h (2 Bft)
19.06.2009 20:00 24,0 C 17,9 C 0,7 UV-I 0,0 C 38 % 46 % 0 % 1020,8 hPa 0,0 l/m 4,8 km/h (1 Bft) 0,00 h 6,8 km/h (2 Bft)
19.06.2009 21:00 23,2 C 16,6 C 0,1 UV-I 0,0 C 39 % 52 % 0 % 1021,0 hPa 0,0 l/m 1,0 km/h (0 Bft) 0,00 h 1,1 km/h (0 Bft)
19.06.2009 22:00 22,7 C 14,9 C 0,0 UV-I 0,0 C 41 % 59 % 0 % 1021,5 hPa 0,0 l/m 0,0 km/h (0 Bft) 0,00 h 0,1 km/h (0 Bft)
19.06.2009 23:00 22,2 C 13,3 C 0,0 UV-I 0,0 C 43 % 67 % 0 % 1021,9 hPa 0,0 l/m 0,0 km/h (0 Bft) 0,00 h 0,0 km/h (0 Bft)
20.06.2009 00:00 21,5 C 12,2 C 0,0 UV-I 0,0 C 45 % 72 % 0 % 1022,1 hPa 0,0 l/m 0,0 km/h (0 Bft) 0,00 h 0,1 km/h (0 Bft)
20.06.2009 01:00 20,9 C 11,9 C 0,0 UV-I 0,0 C 46 % 74 % 0 % 1021,4 hPa 0,0 l/m 0,0 km/h (0 Bft) 0,00 h 0,3 km/h (0 Bft)
20.06.2009 02:00 20,5 C 12,2 C 0,0 UV-I 0,0 C 46 % 73 % 0 % 1021,0 hPa 0,0 l/m 0,1 km/h (0 Bft) 0,00 h 0,4 km/h (0 Bft)
20.06.2009 03:00 20,2 C 12,3 C 0,0 UV-I 0,0 C 47 % 72 % 0 % 1020,6 hPa 0,0 l/m 0,3 km/h (0 Bft) 0,00 h 1,0 km/h (0 Bft)
20.06.2009 04:00 20,0 C 12,6 C 0,0 UV-I 0,0 C 48 % 73 % 0 % 1019,9 hPa 0,0 l/m 0,8 km/h (0 Bft) 0,00 h 1,3 km/h (1 Bft)
20.06.2009 05:00 19,8 C 12,4 C 0,0 UV-I 0,0 C 49 % 75 % 0 % 1019,8 hPa 0,0 l/m 0,8 km/h (0 Bft) 0,00 h 2,0 km/h (1 Bft)
20.06.2009 06:00 19,6 C 12,5 C 0,1 UV-I 0,0 C 50 % 78 % 0 % 1020,0 hPa 0,0 l/m 1,2 km/h (1 Bft) 0,00 h 2,2 km/h (1 Bft)
20.06.2009 07:00 19,8 C 12,9 C 0,4 UV-I 0,0 C 52 % 79 % 1 % 1020,1 hPa 0,0 l/m 1,0 km/h (0 Bft) 0,00 h 1,4 km/h (1 Bft)
20.06.2009 08:00 20,8 C 14,0 C 1,3 UV-I 1,0 C 52 % 79 % 27 % 1021,0 hPa 0,0 l/m 0,8 km/h (0 Bft) 0,00 h 2,2 km/h (1 Bft)
20.06.2009 09:00 21,3 C 15,3 C 2,1 UV-I 1,6 C 52 % 75 % 45 % 1021,2 hPa 0,0 l/m 2,1 km/h (1 Bft) 0,00 h 3,6 km/h (1 Bft)
20.06.2009 10:00 21,7 C 17,0 C 2,8 UV-I 3,4 C 51 % 67 % 85 % 1021,3 hPa 0,0 l/m 2,8 km/h (1 Bft) 0,48 h 5,5 km/h (1 Bft)
20.06.2009 11:00 22,0 C 18,0 C 3,2 UV-I 1,4 C 49 % 61 % 40 % 1021,1 hPa 0,0 l/m 4,0 km/h (1 Bft) 0,13 h 6,2 km/h (2 Bft)
20.06.2009 12:00 21,8 C 16,1 C 2,0 UV-I 0,5 C 50 % 70 % 14 % 1021,1 hPa 1,6 l/m 1,8 km/h (1 Bft) 0,00 h 2,2 km/h (1 Bft)
20.06.2009 13:00 21,9 C 17,0 C 6,4 UV-I 3,5 C 52 % 67 % 89 % 1021,0 hPa 0,0 l/m 3,6 km/h (1 Bft) 0,83 h 5,9 km/h (2 Bft)
20.06.2009 14:00 22,0 C 19,5 C 4,8 UV-I 2,6 C 48 % 50 % 70 % 1020,8 hPa 0,1 l/m 5,2 km/h (1 Bft) 0,38 h 9,2 km/h (2 Bft)
20.06.2009 15:00 22,3 C 19,6 C 4,7 UV-I 2,0 C 46 % 49 % 58 % 1020,9 hPa 0,0 l/m 5,5 km/h (1 Bft) 0,23 h 8,5 km/h (2 Bft)
20.06.2009 16:00 22,6 C 19,4 C 2,5 UV-I 0,7 C 44 % 48 % 21 % 1021,1 hPa 0,0 l/m 3,9 km/h (1 Bft) 0,00 h 5,9 km/h (2 Bft)
20.06.2009 17:00 22,4 C 18,0 C 0,7 UV-I 0,0 C 44 % 52 % 0 % 1021,2 hPa 0,0 l/m 5,1 km/h (1 Bft) 0,00 h 10,1 km/h (2 Bft)
20.06.2009 18:00 21,8 C 16,8 C 0,6 UV-I 0,0 C 44 % 56 % 0 % 1021,3 hPa 0,0 l/m 4,6 km/h (1 Bft) 0,00 h 6,8 km/h (2 Bft)
20.06.2009 19:00 21,4 C 16,2 C 0,6 UV-I 0,0 C 46 % 59 % 0 % 1021,3 hPa 0,0 l/m 2,3 km/h (1 Bft) 0,00 h 4,0 km/h (1 Bft)
20.06.2009 20:00 21,2 C 15,7 C 0,2 UV-I 0,0 C 46 % 60 % 0 % 1021,9 hPa 0,0 l/m 2,4 km/h (1 Bft) 0,00 h 2,9 km/h (1 Bft)
20.06.2009 21:00 20,9 C 15,1 C 0,0 UV-I 0,0 C 47 % 64 % 0 % 1021,7 hPa 0,0 l/m 1,1 km/h (1 Bft) 0,00 h 2,2 km/h (1 Bft)
20.06.2009 22:00 20,6 C 14,7 C 0,0 UV-I 0,0 C 48 % 67 % 0 % 1022,2 hPa 0,0 l/m 0,6 km/h (0 Bft) 0,00 h 0,6 km/h (0 Bft)
20.06.2009 23:00 20,4 C 14,1 C 0,0 UV-I 0,0 C 50 % 71 % 0 % 1022,3 hPa 0,0 l/m 0,0 km/h (0 Bft) 0,00 h 0,0 km/h (0 Bft)
21.06.2009 00:00 20,2 C 13,5 C 0,0 UV-I 0,0 C 51 % 74 % 0 % 1022,1 hPa 0,0 l/m 0,0 km/h (0 Bft) 0,00 h 0,4 km/h (0 Bft)
21.06.2009 01:00 20,0 C 13,3 C 0,0 UV-I 0,0 C 51 % 76 % 0 % 1021,8 hPa 0,0 l/m 0,0 km/h (0 Bft) 0,00 h 0,0 km/h (0 Bft)
21.06.2009 02:00 19,8 C 12,6 C 0,0 UV-I 0,0 C 52 % 79 % 0 % 1021,6 hPa 0,0 l/m 0,0 km/h (0 Bft) 0,00 h 0,0 km/h (0 Bft)
21.06.2009 03:00 19,7 C 12,3 C 0,0 UV-I 0,0 C 53 % 80 % 0 % 1021,4 hPa 0,0 l/m 0,0 km/h (0 Bft) 0,00 h 0,0 km/h (0 Bft)
21.06.2009 04:00 19,5 C 12,3 C 0,0 UV-I 0,0 C 53 % 81 % 0 % 1021,2 hPa 0,0 l/m 0,0 km/h (0 Bft) 0,00 h 0,0 km/h (0 Bft)
21.06.2009 05:00 19,4 C 12,1 C 0,0 UV-I 0,0 C 54 % 82 % 0 % 1020,8 hPa 0,0 l/m 0,0 km/h (0 Bft) 0,00 h 0,0 km/h (0 Bft)
21.06.2009 06:00 19,2 C 11,7 C 0,2 UV-I 0,0 C 54 % 84 % 0 % 1020,7 hPa 0,0 l/m 0,0 km/h (0 Bft) 0,00 h 0,0 km/h (0 Bft)
21.06.2009 07:00 19,2 C 12,0 C 0,4 UV-I 0,0 C 55 % 86 % 0 % 1020,6 hPa 0,0 l/m 0,0 km/h (0 Bft) 0,00 h 0,0 km/h (0 Bft)
21.06.2009 08:00 19,2 C 12,7 C 0,5 UV-I 0,0 C 58 % 87 % 0 % 1021,0 hPa 0,2 l/m 0,2 km/h (0 Bft) 0,00 h 0,2 km/h (0 Bft)
21.06.2009 09:00 19,4 C 13,5 C 2,0 UV-I 0,6 C 59 % 88 % 18 % 1021,1 hPa 0,0 l/m 0,3 km/h (0 Bft) 0,00 h 0,5 km/h (0 Bft)
21.06.2009 10:00 19,9 C 14,3 C 2,1 UV-I 0,5 C 59 % 82 % 13 % 1021,2 hPa 0,1 l/m 0,9 km/h (0 Bft) 0,00 h 1,6 km/h (1 Bft)
21.06.2009 11:00 20,7 C 14,9 C 2,0 UV-I 0,8 C 56 % 78 % 22 % 1021,5 hPa 0,0 l/m 1,0 km/h (0 Bft) 0,00 h 1,8 km/h (1 Bft)
21.06.2009 12:00 21,0 C 16,1 C 4,4 UV-I 3,2 C 55 % 71 % 80 % 1021,5 hPa 0,0 l/m 1,9 km/h (1 Bft) 0,67 h 2,9 km/h (1 Bft)
21.06.2009 13:00 21,2 C 18,7 C 6,5 UV-I 4,9 C 52 % 56 % 100 % 1021,1 hPa 0,1 l/m 3,0 km/h (1 Bft) 1,00 h 4,9 km/h (1 Bft)
21.06.2009 14:00 21,5 C 20,2 C 6,5 UV-I 3,9 C 49 % 50 % 98 % 1020,9 hPa 0,0 l/m 4,1 km/h (1 Bft) 0,83 h 6,4 km/h (2 Bft)
21.06.2009 15:00 22,1 C 20,2 C 4,6 UV-I 2,3 C 47 % 47 % 64 % 1021,1 hPa 0,0 l/m 5,5 km/h (1 Bft) 0,33 h 8,1 km/h (2 Bft)
21.06.2009 16:00 22,4 C 19,1 C 4,0 UV-I 1,4 C 46 % 51 % 40 % 1021,2 hPa 0,0 l/m 6,2 km/h (2 Bft) 0,00 h 9,6 km/h (2 Bft)
21.06.2009 17:00 22,4 C 17,6 C 2,3 UV-I 0,5 C 45 % 56 % 15 % 1021,5 hPa 0,0 l/m 6,2 km/h (2 Bft) 0,00 h 9,1 km/h (2 Bft)
21.06.2009 18:00 22,0 C 17,2 C 2,4 UV-I 1,9 C 45 % 56 % 53 % 1021,5 hPa 0,0 l/m 5,7 km/h (1 Bft) 0,27 h 7,0 km/h (2 Bft)
21.06.2009 19:00 21,8 C 16,4 C 1,6 UV-I 0,0 C 46 % 58 % 1 % 1021,6 hPa 0,0 l/m 4,7 km/h (1 Bft) 0,00 h 6,4 km/h (2 Bft)
21.06.2009 20:00 21,4 C 15,6 C 0,7 UV-I 0,0 C 46 % 60 % 0 % 1021,9 hPa 0,0 l/m 2,2 km/h (1 Bft) 0,00 h 2,9 km/h (1 Bft)
21.06.2009 21:00 20,9 C 14,7 C 0,1 UV-I 0,0 C 47 % 67 % 0 % 1022,2 hPa 0,0 l/m 1,5 km/h (1 Bft) 0,00 h 2,1 km/h (1 Bft)
21.06.2009 22:00 20,4 C 13,6 C 0,0 UV-I 0,0 C 49 % 71 % 0 % 1022,6 hPa 0,0 l/m 0,1 km/h (0 Bft) 0,00 h 0,3 km/h (0 Bft)
21.06.2009 23:00 20,0 C 12,3 C 0,0 UV-I 0,0 C 50 % 76 % 0 % 1023,0 hPa 0,0 l/m 0,0 km/h (0 Bft) 0,00 h 0,0 km/h (0 Bft)
Min-Datum _ 17.06.09 17.06.09 15.06.09 15.06.09 19.06.09 19.06.09 15.06.09 15.06.09 - 15.06.09 - 15.06.09
_ Min-Zeit 06:34 05:42 00:00 00:00 19:34 17:16 00:00 19:18 - 00:00 - 00:00
Minimum _ 18,5 C 8,9 C 0,0 UV-I 0,0 C 37 % 38 % 0 % 1014,2 hPa - 0,0 km/h (0 Bft) - 0,0 km/h (0 Bft)
Max-Datum _ 19.06.09 17.06.09 17.06.09 17.06.09 15.06.09 17.06.09 16.06.09 16.06.09 20.06.09 19.06.09 15.06.09 19.06.09
_ Max-Zeit 18:12 16:34 11:18 10:20 01:40 07:08 11:08 23:18 12:16 17:54 13:32 17:22
Maximum _ 25,2 C 27,3 C 11,5 UV-I 6,5 C 65 % 95 % 100 % 1025,7 hPa 1,6 l/m 9,9 km/h
W-SW (2 Bft)
0,03 h 34,2 km/h
W-SW (5 Bft)
Durchschnitt _ 21,1 C 16,7 C 1,6 UV-I 0,8 C 55 % 71 % 21 % 1019,3 hPa #3,8 l/m 1,8 km/h (1 Bft) #18:14 h 3,0 km/h (1 Bft)
© 2012 W. Hausmann